Time;durP1;ratioP1;P1;durP2;ratioP2;P2;SDS_P1;SDS_P2;PMS_P1;PMS_P2;Temp;Humidity;BMP_temperature;BMP_pressure;BME280_temperature;BME280_humidity;BME280_pressure;Samples;Min_cycle;Max_cycle;Signal;HPM_P1;HPM_P2
2022/01/31 00:00:11;;;;;;;14.50;4.43;;;0.40;99.90;;;;;;5071103;28;20495;-91
2022/01/31 00:02:38;;;;;;;12.63;3.50;;;;;;;;;;5073181;28;20457;-91
2022/01/31 00:05:06;;;;;;;5.53;2.20;;;;;;;;;;5074064;28;20445;-90
2022/01/31 00:07:33;;;;;;;6.47;2.87;;;;;;;;;;5073952;28;20451;-91
2022/01/31 00:10:07;;;;;;;11.07;3.50;;;;;;;;;;5074069;28;20442;-90
2022/01/31 00:12:42;;;;;;;10.83;3.03;;;;;;;;;;5073852;28;20461;-91
2022/01/31 00:15:09;;;;;;;7.50;2.83;;;;;;;;;;5069534;28;20596;-91
2022/01/31 00:17:36;;;;;;;6.13;2.50;;;;;;;;;;5073338;28;20437;-91
2022/01/31 00:20:04;;;;;;;10.80;3.73;;;;;;;;;;5074002;28;20442;-90
2022/01/31 00:22:31;;;;;;;8.37;3.37;;;;;;;;;;5070181;28;20855;-90
2022/01/31 00:24:58;;;;;;;10.03;3.40;;;;;;;;;;5072504;28;20976;-90
2022/01/31 00:27:26;;;;;;;16.57;3.27;;;;;;;;;;5073927;28;20767;-90
2022/01/31 00:29:54;;;;;;;5.87;3.50;;;;;;;;;;5073863;28;20434;-90
2022/01/31 00:32:21;;;;;;;8.73;3.77;;;;;;;;;;5069759;28;20825;-90
2022/01/31 00:34:48;;;;;;;11.10;3.57;;;;;;;;;;5073767;28;20840;-90
2022/01/31 00:37:15;;;;;;;16.03;3.10;;;;;;;;;;5070469;28;20445;-91
2022/01/31 00:39:42;;;;;;;8.97;3.60;;;;;;;;;;5073916;28;20445;-90
2022/01/31 00:42:10;;;;;;;16.60;4.03;;;;;;;;;;5073581;28;20457;-90
2022/01/31 00:44:45;;;;;;;9.53;3.20;;;;;;;;;;5070409;28;20435;-91
2022/01/31 00:47:22;;;;;;;11.53;2.93;;;;;;;;;;5072485;28;20478;-91
2022/01/31 00:49:52;;;;;;;8.00;3.60;;;;;;;;;;5073250;28;20921;-91
2022/01/31 00:52:19;;;;;;;22.80;4.47;;;;;;;;;;5070303;28;20443;-91
2022/01/31 00:54:47;;;;;;;4.53;2.37;;;;;;;;;;5070133;28;20485;-89
2022/01/31 00:57:14;;;;;;;8.63;3.67;;;;;;;;;;5072980;28;20434;-89
2022/01/31 00:59:42;;;;;;;2.80;1.23;;;1.10;99.90;;;;;;5073567;28;20809;-90
2022/01/31 01:02:10;;;;;;;7.53;2.43;;;;;;;;;;4993886;28;20462;-89
2022/01/31 01:04:37;;;;;;;6.57;3.87;;;;;;;;;;4992194;28;20450;-91
2022/01/31 01:07:05;;;;;;;8.53;2.47;;;;;;;;;;4988711;28;20465;-90
2022/01/31 01:09:32;;;;;;;7.37;3.60;;;;;;;;;;4992139;28;20441;-89
2022/01/31 01:11:59;;;;;;;2.80;1.37;;;;;;;;;;4992263;28;20841;-89
2022/01/31 01:14:26;;;;;;;7.30;2.40;;;;;;;;;;4987130;28;20484;-90
2022/01/31 01:16:56;;;;;;;8.73;3.33;;;;;;;;;;4986294;28;20456;-91
2022/01/31 01:19:23;;;;;;;7.00;3.10;;;;;;;;;;4997386;28;20454;-90
2022/01/31 01:21:50;;;;;;;12.20;2.90;;;;;;;;;;5072893;28;20434;-90
2022/01/31 01:24:18;;;;;;;1.07;1.00;;;;;;;;;;5073274;28;20446;-90
2022/01/31 01:26:46;;;;;;;7.70;2.90;;;;;;;;;;5073318;28;20808;-91
2022/01/31 01:29:13;;;;;;;14.27;3.80;;;;;;;;;;5069751;28;20482;-90
2022/01/31 01:31:41;;;;;;;16.90;3.87;;;;;;;;;;5072471;28;20474;-91
2022/01/31 01:34:10;;;;;;;13.70;3.00;;;;;;;;;;5075099;28;20533;-89
2022/01/31 01:36:38;;;;;;;12.03;3.67;;;;;;;;;;5076775;28;20620;-91
2022/01/31 01:39:05;;;;;;;5.83;3.00;;;;;;;;;;5076207;28;20446;-91
2022/01/31 01:41:33;;;;;;;9.97;3.27;;;;;;;;;;5075217;28;20937;-93
2022/01/31 01:44:00;;;;;;;12.73;5.90;;;;;;;;;;5073281;28;20438;-90
2022/01/31 01:46:27;;;;;;;4.33;2.57;;;;;;;;;;5074029;28;20818;-91
2022/01/31 01:48:54;;;;;;;11.00;3.17;;;;;;;;;;5076154;28;20473;-90
2022/01/31 01:51:23;;;;;;;9.40;3.70;;;;;;;;;;5076370;28;20457;-92
2022/01/31 01:53:50;;;;;;;7.10;2.93;;;;;;;;;;5076379;28;20434;-92
2022/01/31 01:56:18;;;;;;;3.50;1.90;;;;;;;;;;5073914;28;20501;-89
2022/01/31 01:58:48;;;;;;;8.20;3.70;;;;;;;;;;5076652;28;20435;-90
2022/01/31 02:01:15;;;;;;;10.27;3.57;;;;;;;;;;5076001;28;20486;-88
2022/01/31 02:03:43;;;;;;;7.60;2.50;;;;;;;;;;5072732;28;20826;-92
2022/01/31 02:06:10;;;;;;;10.07;2.70;;;;;;;;;;5076233;28;20451;-89
2022/01/31 02:08:43;;;;;;;9.07;3.37;;;1.40;99.90;;;;;;5076290;28;20431;-90
2022/01/31 02:11:11;;;;;;;2.00;1.03;;;;;;;;;;5075880;28;20512;-91
2022/01/31 02:13:38;;;;;;;7.17;2.23;;;;;;;;;;5075793;28;20453;-91
2022/01/31 02:16:07;;;;;;;7.50;3.53;;;1.30;99.90;;;;;;5072784;28;20493;-89
2022/01/31 02:18:37;;;;;;;8.17;3.20;;;;;;;;;;5075066;28;20458;-87
2022/01/31 02:21:07;;;;;;;5.83;1.90;;;;;;;;;;5075816;28;20442;-90
2022/01/31 02:23:34;;;;;;;10.53;3.10;;;1.30;99.90;;;;;;5075948;28;20465;-91
2022/01/31 02:26:04;;;;;;;6.40;1.63;;;1.30;99.90;;;;;;5071698;28;20480;-90
2022/01/31 02:28:34;;;;;;;9.13;4.00;;;1.30;99.90;;;;;;5075768;28;20449;-91
2022/01/31 02:31:01;;;;;;;12.33;3.07;;;1.30;99.90;;;;;;5076008;28;20466;-89
2022/01/31 02:33:29;;;;;;;10.50;3.40;;;;;;;;;;5074767;28;20458;-91
2022/01/31 02:35:57;;;;;;;6.30;3.70;;;1.30;99.90;;;;;;5074305;28;20477;-90
2022/01/31 02:38:26;;;;;;;13.87;3.37;;;;;;;;;;5075436;28;20446;-89
2022/01/31 02:40:54;;;;;;;9.67;3.50;;;;;;;;;;5075577;28;20446;-90
2022/01/31 02:43:21;;;;;;;9.33;3.07;;;;;;;;;;5075484;28;20450;-91
2022/01/31 02:45:49;;;;;;;8.43;3.83;;;;;;;;;;5074871;28;20438;-90
2022/01/31 02:48:19;;;;;;;6.90;2.90;;;;;;;;;;5074534;28;20473;-92
2022/01/31 02:50:46;;;;;;;7.87;3.70;;;;;;;;;;5075372;28;20999;-91
2022/01/31 02:53:22;;;;;;;3.87;2.00;;;;;;;;;;5071867;28;20508;-90
2022/01/31 02:55:51;;;;;;;4.20;2.63;;;1.50;99.90;;;;;;5071741;28;20913;-90
2022/01/31 02:58:19;;;;;;;4.27;1.90;;;;;;;;;;5074934;28;20960;-92
2022/01/31 03:00:46;;;;;;;3.43;1.63;;;;;;;;;;5074547;28;20454;-91
2022/01/31 03:03:13;;;;;;;5.40;2.40;;;;;;;;;;5071363;28;20435;-91
2022/01/31 03:05:40;;;;;;;9.70;2.50;;;;;;;;;;5074830;28;20457;-90
2022/01/31 03:08:09;;;;;;;6.40;2.87;;;;;;;;;;5075052;28;20454;-90
2022/01/31 03:10:37;;;;;;;6.60;3.40;;;;;;;;;;5074462;28;20450;-91
2022/01/31 03:13:06;;;;;;;13.23;2.87;;;;;;;;;;5073579;28;20439;-91
2022/01/31 03:15:33;;;;;;;7.70;3.37;;;;;;;;;;5075000;28;20474;-90
2022/01/31 03:18:00;;;;;;;1.03;0.70;;;;;;;;;;5074101;28;20446;-90
2022/01/31 03:20:28;;;;;;;5.30;2.70;;;;;;;;;;5075029;28;20435;-90
2022/01/31 03:22:55;;;;;;;13.23;2.23;;;;;;;;;;5074938;28;20434;-90
2022/01/31 03:25:22;;;;;;;6.20;2.77;;;;;;;;;;5073371;28;20453;-91
2022/01/31 03:27:50;;;;;;;1.93;1.33;;;1.80;99.90;;;;;;5074657;28;20922;-91
2022/01/31 03:30:20;;;;;;;3.10;1.97;;;1.80;99.90;;;;;;5074225;28;20479;-90
2022/01/31 03:32:48;;;;;;;5.23;2.23;;;;;;;;;;5070574;28;20434;-91
2022/01/31 03:35:15;;;;;;;6.80;2.77;;;;;;;;;;5074595;28;20498;-91
2022/01/31 03:37:43;;;;;;;2.40;1.43;;;1.80;99.90;;;;;;5071151;28;20495;-91
2022/01/31 03:40:11;;;;;;;5.80;2.47;;;1.90;99.90;;;;;;5074567;28;20466;-92
2022/01/31 03:42:39;;;;;;;1.63;1.50;;;1.90;99.90;;;;;;5067494;28;20431;-89
2022/01/31 03:45:09;;;;;;;5.37;2.80;;;1.80;99.90;;;;;;5074323;28;20450;-90
2022/01/31 03:47:44;;;;;;;4.43;2.07;;;;;;;;;;5073712;28;20970;-91
2022/01/31 03:50:12;;;;;;;5.83;2.50;;;1.90;99.90;;;;;;5074221;28;20446;-89
2022/01/31 03:52:39;;;;;;;7.87;2.70;;;;;;;;;;5074341;28;20933;-92
2022/01/31 03:55:07;;;;;;;8.40;2.87;;;2.00;99.90;;;;;;5074036;28;20478;-92
2022/01/31 03:57:34;;;;;;;8.23;3.20;;;;;;;;;;5073961;28;20453;-91
2022/01/31 04:00:04;;;;;;;10.73;2.43;;;;;;;;;;5074174;28;20457;-90
2022/01/31 04:02:31;;;;;;;3.30;1.43;;;;;;;;;;5070013;28;20507;-90
2022/01/31 04:05:00;;;;;;;1.43;0.90;;;;;;;;;;5072479;28;20472;-90
2022/01/31 04:07:27;;;;;;;2.40;1.50;;;;;;;;;;5071705;28;20922;-91
2022/01/31 04:09:55;;;;;;;9.43;2.20;;;;;;;;;;5074143;28;20439;-90
2022/01/31 04:12:22;;;;;;;5.00;3.17;;;;;;;;;;5074209;28;20908;-92
2022/01/31 04:14:49;;;;;;;3.70;2.60;;;;;;;;;;5073545;28;20435;-88
2022/01/31 04:17:19;;;;;;;5.53;2.70;;;;;;;;;;5073532;28;20478;-92
2022/01/31 04:19:47;;;;;;;10.53;2.33;;;;;;;;;;5073914;28;20895;-90
2022/01/31 04:22:18;;;;;;;6.23;2.63;;;;;;;;;;5073741;28;20430;-91
2022/01/31 04:24:48;;;;;;;10.20;1.97;;;;;;;;;;5070829;28;20511;-90
2022/01/31 04:27:18;;;;;;;6.30;2.53;;;;;;;;;;5070710;28;20533;-88
2022/01/31 04:29:47;;;;;;;5.67;2.37;;;;;;;;;;5074304;28;20504;-90
2022/01/31 04:32:15;;;;;;;4.43;1.50;;;;;;;;;;5074066;28;20450;-91
2022/01/31 04:34:42;;;;;;;2.20;1.50;;;;;;;;;;5071857;28;20453;-90
2022/01/31 04:37:10;;;;;;;7.20;2.77;;;;;;;;;;5073733;28;20478;-91
2022/01/31 04:39:39;;;;;;;8.67;4.20;;;;;;;;;;5074515;28;20953;-93
2022/01/31 04:42:07;;;;;;;2.00;1.17;;;2.60;99.90;;;;;;5070841;28;20937;-91
2022/01/31 04:44:37;;;;;;;11.30;1.40;;;;;;;;;;5070969;28;20449;-93
2022/01/31 04:47:04;;;;;;;5.10;1.87;;;2.70;99.90;;;;;;5068779;28;20485;-92
2022/01/31 04:49:34;;;;;;;5.17;3.10;;;;;;;;;;5080159;28;20434;-93
2022/01/31 04:52:01;;;;;;;3.13;1.23;;;;;;;;;;5098213;28;20448;-89
2022/01/31 04:54:28;;;;;;;17.80;1.80;;;;;;;;;;5079734;28;20451;-91
2022/01/31 04:57:00;;;;;;;0.40;0.30;;;;;;;;;;5073880;28;20494;-91
2022/01/31 04:59:28;;;;;;;8.33;1.60;;;;;;;;;;5074393;28;20517;-91
2022/01/31 05:01:55;;;;;;;4.40;2.40;;;;;;;;;;5074248;28;20430;-90
2022/01/31 05:04:22;;;;;;;7.40;1.90;;;;;;;;;;5073864;28;20438;-91
2022/01/31 05:06:49;;;;;;;3.33;2.07;;;;;;;;;;5074654;28;20445;-92
2022/01/31 05:09:17;;;;;;;4.67;1.40;;;2.30;99.90;;;;;;5077123;28;20445;-90
2022/01/31 05:11:45;;;;;;;5.10;2.93;;;;;;;;;;5078269;28;20453;-91
2022/01/31 05:14:16;;;;;;;5.43;1.47;;;2.20;99.90;;;;;;5078087;28;20540;-91
2022/01/31 05:16:43;;;;;;;5.70;2.00;;;;;;;;;;5071484;28;20489;-90
2022/01/31 05:19:10;;;;;;;3.80;2.13;;;;;;;;;;5074386;28;20450;-91
2022/01/31 05:21:38;;;;;;;3.73;2.30;;;;;;;;;;5077564;28;20446;-92
2022/01/31 05:24:06;;;;;;;3.60;1.23;;;;;;;;;;5074563;28;20449;-90
2022/01/31 05:26:34;;;;;;;5.23;2.70;;;;;;;;;;5074451;28;20488;-90
2022/01/31 05:29:01;;;;;;;8.43;2.23;;;;;;;;;;5077449;28;20470;-91
2022/01/31 05:31:29;;;;;;;6.60;2.13;;;;;;;;;;5077106;28;20801;-90
2022/01/31 05:33:57;;;;;;;0.60;0.60;;;;;;;;;;5077427;28;20468;-90
2022/01/31 05:36:24;;;;;;;6.57;2.83;;;;;;;;;;5075517;28;20481;-88
2022/01/31 05:38:51;;;;;;;1.00;0.90;;;;;;;;;;5074236;28;20474;-89
2022/01/31 05:41:19;;;;;;;3.30;2.10;;;;;;;;;;5076888;28;20442;-88
2022/01/31 05:43:46;;;;;;;6.20;2.50;;;;;;;;;;5077016;28;20449;-89
2022/01/31 05:46:14;;;;;;;9.23;3.20;;;;;;;;;;5075670;28;20811;-88
2022/01/31 05:48:42;;;;;;;1.30;1.13;;;;;;;;;;5074865;28;20478;-88
2022/01/31 05:51:15;;;;;;;6.20;1.97;;;3.10;99.90;;;;;;5076512;28;20519;-89
2022/01/31 05:53:43;;;;;;;5.13;1.50;;;;;;;;;;5073619;28;20438;-89
2022/01/31 05:56:10;;;;;;;1.80;1.13;;;;;;;;;;5076400;28;20470;-88
2022/01/31 05:58:38;;;;;;;4.10;2.20;;;;;;;;;;5076530;28;20445;-90
2022/01/31 06:01:06;;;;;;;5.70;1.53;;;;;;;;;;5076814;28;20450;-89
2022/01/31 06:03:33;;;;;;;1.30;1.03;;;;;;;;;;5072801;28;20451;-89
2022/01/31 06:06:02;;;;;;;1.83;1.30;;;;;;;;;;5076375;28;20462;-90
2022/01/31 06:08:29;;;;;;;6.80;1.97;;;;;;;;;;5076466;28;20442;-89
2022/01/31 06:10:56;;;;;;;5.47;1.40;;;;;;;;;;5076718;28;20454;-90
2022/01/31 06:13:27;;;;;;;2.97;1.67;;;;;;;;;;5073412;28;20486;-89
2022/01/31 06:15:55;;;;;;;4.77;2.30;;;;;;;;;;5075766;28;20481;-90
2022/01/31 06:18:22;;;;;;;4.30;1.73;;;;;;;;;;5079703;28;20446;-90
2022/01/31 06:20:49;;;;;;;6.27;2.27;;;;;;;;;;5072953;28;20528;-89
2022/01/31 06:23:18;;;;;;;9.40;1.83;;;;;;;;;;5073257;28;20496;-89
2022/01/31 06:25:47;;;;;;;1.43;0.83;;;;;;;;;;5075110;28;20446;-88
2022/01/31 06:28:14;;;;;;;4.57;2.10;;;;;;;;;;5076075;28;20453;-89
2022/01/31 06:30:42;;;;;;;1.93;1.40;;;;;;;;;;5071993;28;20902;-90
2022/01/31 06:33:09;;;;;;;3.20;1.03;;;;;;;;;;5077135;28;20453;-91
2022/01/31 06:35:36;;;;;;;3.00;1.40;;;;;;;;;;5074204;28;20437;-89
2022/01/31 06:38:03;;;;;;;8.77;2.10;;;;;;;;;;5074243;28;20422;-91
2022/01/31 06:40:32;;;;;;;1.97;1.60;;;;;;;;;;5073571;28;20492;-90
2022/01/31 06:42:59;;;;;;;3.87;1.13;;;;;;;;;;5081320;28;20925;-90
2022/01/31 06:45:26;;;;;;;2.10;1.30;;;;;;;;;;5076119;28;20450;-91
2022/01/31 06:47:53;;;;;;;3.40;2.00;;;;;;;;;;5076026;28;20485;-92
2022/01/31 06:50:21;;;;;;;6.50;3.27;;;;;;;;;;5073394;28;20980;-93
2022/01/31 06:52:51;;;;;;;1.53;1.37;;;;;;;;;;5074241;28;20438;-91
2022/01/31 06:55:20;;;;;;;5.17;1.60;;;;;;;;;;5072310;28;20906;-92
2022/01/31 06:57:51;;;;;;;6.97;2.63;;;2.70;99.90;;;;;;5072676;28;20482;-91
2022/01/31 07:00:18;;;;;;;3.87;1.50;;;;;;;;;;5072527;28;20882;-90
2022/01/31 07:02:46;;;;;;;4.23;1.63;;;;;;;;;;5067121;28;20435;-92
2022/01/31 07:05:14;;;;;;;1.57;1.17;;;;;;;;;;5050684;28;20434;-92
2022/01/31 07:07:43;;;;;;;1.10;1.10;;;;;;;;;;5054697;28;20478;-91
2022/01/31 07:10:11;;;;;;;6.10;2.50;;;;;;;;;;5054563;28;20961;-88
2022/01/31 07:12:40;;;;;;;3.10;1.87;;;;;;;;;;5051735;28;20458;-89
2022/01/31 07:15:12;;;;;;;8.53;2.93;;;2.60;99.90;;;;;;5055086;28;20993;-91
2022/01/31 07:17:40;;;;;;;3.63;2.47;;;;;;;;;;5048766;28;20529;-88
2022/01/31 07:20:11;;;;;;;2.37;1.13;;;2.60;99.90;;;;;;5054924;28;20474;-89
2022/01/31 07:22:40;;;;;;;10.07;2.63;;;;;;;;;;5049481;28;20461;-88
2022/01/31 07:25:20;;;;;;;14.20;2.20;;;2.70;99.90;;;;;;5051392;28;20439;-89
2022/01/31 07:27:47;;;;;;;6.90;3.50;;;;;;;;;;5053221;28;20463;-90
2022/01/31 07:30:16;;;;;;;3.57;1.53;;;;;;;;;;5051756;28;20473;-90
2022/01/31 07:32:43;;;;;;;9.13;3.63;;;;;;;;;;5053888;28;20443;-89
2022/01/31 07:35:10;;;;;;;4.67;2.93;;;;;;;;;;5051512;28;20494;-90
2022/01/31 07:37:38;;;;;;;9.40;5.67;;;;;;;;;;5054755;28;20486;-89
2022/01/31 07:40:05;;;;;;;9.00;4.57;;;;;;;;;;5054507;28;20443;-90
2022/01/31 07:42:32;;;;;;;3.53;2.13;;;;;;;;;;5055074;28;20458;-86
2022/01/31 07:45:00;;;;;;;3.30;1.80;;;;;;;;;;5050726;28;20454;-87
2022/01/31 07:47:29;;;;;;;5.50;2.70;;;2.80;99.90;;;;;;5055207;28;20483;-88
2022/01/31 07:49:57;;;;;;;4.30;2.43;;;;;;;;;;5056745;28;20451;-88
2022/01/31 07:52:24;;;;;;;2.47;1.20;;;;;;;;;;5056803;28;20447;-88
2022/01/31 07:54:52;;;;;;;1.23;0.90;;;;;;;;;;5054348;28;20534;-88
2022/01/31 07:57:19;;;;;;;5.10;2.03;;;;;;;;;;5056650;28;20876;-91
2022/01/31 07:59:47;;;;;;;3.27;1.97;;;;;;;;;;5046438;28;20439;-91
2022/01/31 08:02:14;;;;;;;3.63;1.77;;;;;;;;;;5050827;28;20455;-92
2022/01/31 08:04:43;;;;;;;1.57;1.03;;;;;;;;;;5051545;28;20477;-90
2022/01/31 08:07:10;;;;;;;1.03;0.60;;;;;;;;;;5054445;28;20458;-94
2022/01/31 08:09:37;;;;;;;1.63;1.53;;;;;;;;;;5054764;28;20462;-92
2022/01/31 08:12:05;;;;;;;1.30;1.10;;;;;;;;;;5050527;28;20443;-94
2022/01/31 08:14:32;;;;;;;2.50;1.40;;;;;;;;;;5049904;28;20439;-89
2022/01/31 08:17:00;;;;;;;0.80;0.63;;;2.80;99.90;;;;;;5046684;28;20467;-88
2022/01/31 08:19:38;;;;;;;1.70;0.83;;;2.90;99.90;;;;;;5051281;28;20470;-90
2022/01/31 08:22:11;;;;;;;2.87;1.13;;;2.90;99.90;;;;;;5058284;28;20463;-91
2022/01/31 08:24:38;;;;;;;4.77;1.60;;;;;;;;;;5051396;28;20475;-90
2022/01/31 08:27:05;;;;;;;1.07;0.70;;;;;;;;;;5054106;28;20450;-91
2022/01/31 08:29:36;;;;;;;2.07;0.90;;;;;;;;;;5050698;28;20467;-90
2022/01/31 08:32:08;;;;;;;0.70;0.60;;;;;;;;;;5050528;28;20973;-91
2022/01/31 08:37:21;;;;;;;1.80;1.00;;;;;;;;;;5054152;28;20486;-90
2022/01/31 08:39:48;;;;;;;0.70;0.50;;;;;;;;;;5054542;28;20451;-91
2022/01/31 08:42:15;;;;;;;1.53;0.50;;;;;;;;;;5051281;28;20470;-89
2022/01/31 08:44:43;;;;;;;1.83;1.57;;;;;;;;;;5054799;28;20809;-91
2022/01/31 08:47:10;;;;;;;1.23;0.93;;;;;;;;;;5054421;28;20487;-90
2022/01/31 08:49:37;;;;;;;2.50;0.97;;;;;;;;;;5058336;28;20478;-91
2022/01/31 08:52:05;;;;;;;4.27;1.13;;;;;;;;;;5054788;28;20454;-90
2022/01/31 08:54:34;;;;;;;0.70;0.70;;;3.50;99.90;;;;;;5054749;28;20443;-91
2022/01/31 08:57:01;;;;;;;1.33;0.77;;;3.50;99.90;;;;;;5057748;28;20493;-90
2022/01/31 08:59:29;;;;;;;1.23;0.57;;;;;;;;;;5057981;28;20442;-91
2022/01/31 09:02:05;;;;;;;1.27;0.80;;;;;;;;;;5053258;28;20455;-89
2022/01/31 09:04:47;;;;;;;0.70;0.50;;;;;;;;;;5059639;28;20478;-92
2022/01/31 09:07:15;;;;;;;2.00;0.90;;;;;;;;;;5059303;28;20537;-89
2022/01/31 09:09:43;;;;;;;1.03;0.67;;;3.90;99.90;;;;;;5060598;28;20435;-91
2022/01/31 09:12:12;;;;;;;0.70;0.60;;;;;;;;;;5054306;28;20450;-90
2022/01/31 09:14:39;;;;;;;1.83;1.30;;;;;;;;;;5057618;28;20802;-89
2022/01/31 09:17:06;;;;;;;1.33;1.00;;;;;;;;;;5056900;28;20475;-91
2022/01/31 09:19:33;;;;;;;0.93;0.70;;;;;;;;;;5052792;28;20489;-87
2022/01/31 09:22:01;;;;;;;0.93;0.67;;;;;;;;;;5055012;28;20446;-86
2022/01/31 09:24:29;;;;;;;6.93;0.70;;;;;;;;;;5057051;28;20455;-90
2022/01/31 09:26:57;;;;;;;2.90;0.97;;;;;;;;;;5057513;28;20483;-92
2022/01/31 09:29:24;;;;;;;2.00;0.97;;;;;;;;;;5057528;28;20431;-89
2022/01/31 09:31:52;;;;;;;4.30;0.40;;;;;;;;;;5045604;28;20466;-91
2022/01/31 09:34:21;;;;;;;1.03;0.60;;;;;;;;;;5054282;28;20439;-93
2022/01/31 09:36:48;;;;;;;1.90;0.60;;;;;;;;;;5056970;28;20805;-91
2022/01/31 09:39:16;;;;;;;0.60;0.53;;;;;;;;;;5051416;28;20506;-90
2022/01/31 09:41:46;;;;;;;1.17;0.70;;;;;;;;;;5053939;28;20455;-92
2022/01/31 09:44:21;;;;;;;3.13;0.47;;;4.80;99.90;;;;;;5056774;28;20461;-89
2022/01/31 09:47:04;;;;;;;0.60;0.50;;;;;;;;;;5052846;28;20444;-88
2022/01/31 09:49:31;;;;;;;0.70;0.60;;;;;;;;;;5056980;28;20494;-89
2022/01/31 09:51:58;;;;;;;0.90;0.60;;;;;;;;;;5056293;28;20444;-88
2022/01/31 09:54:27;;;;;;;0.50;0.50;;;;;;;;;;5053354;28;20454;-88
2022/01/31 09:56:54;;;;;;;0.90;0.60;;;;;;;;;;5056670;28;20792;-94
2022/01/31 09:59:23;;;;;;;5.60;1.30;;;4.90;99.90;;;;;;5057532;28;20485;-90
2022/01/31 10:01:54;;;;;;;0.80;0.73;;;4.70;99.90;;;;;;5057250;28;20458;-91
2022/01/31 10:04:23;;;;;;;1.63;1.13;;;4.70;99.90;;;;;;5057296;28;20462;-90
2022/01/31 10:06:51;;;;;;;2.73;1.10;;;4.70;99.90;;;;;;5051894;28;20428;-90
2022/01/31 10:09:21;;;;;;;2.53;0.97;;;4.70;99.90;;;;;;5056491;28;20451;-91
2022/01/31 10:11:51;;;;;;;3.20;1.20;;;4.70;99.90;;;;;;5057777;28;20443;-91
2022/01/31 10:17:12;;;;;;;2.47;1.23;;;4.30;99.90;;;;;;5054813;28;20560;-89
2022/01/31 10:19:43;;;;;;;1.27;0.60;;;4.60;99.90;;;;;;5055347;28;20448;-87
2022/01/31 10:22:12;;;;;;;5.83;2.27;;;4.60;99.90;;;;;;5055257;28;20455;-88
2022/01/31 10:24:41;;;;;;;1.00;0.90;;;4.70;99.90;;;;;;5048523;28;20455;-90
2022/01/31 10:27:09;;;;;;;1.80;1.17;;;;;;;;;;5055299;28;20884;-86
2022/01/31 10:29:38;;;;;;;2.13;0.97;;;4.70;99.90;;;;;;5050130;28;20814;-88
2022/01/31 10:32:07;;;;;;;2.30;0.80;;;7.10;99.90;;;;;;5049201;28;20452;-88
2022/01/31 10:34:36;;;;;;;2.67;0.80;;;4.80;99.90;;;;;;5052036;28;20452;-88
2022/01/31 10:37:06;;;;;;;1.20;1.10;;;5.00;99.90;;;;;;5051564;28;20451;-90
2022/01/31 10:52:01;;;;;;;5.23;0.80;;;5.50;99.90;;;;;;5132074;27;20446;-87
2022/01/31 10:54:38;;;;;;;2.80;1.50;;;5.70;99.90;;;;;;5131547;27;20802;-88
2022/01/31 10:57:07;;;;;;;5.87;0.80;;;5.60;99.90;;;;;;5131115;27;20455;-89
2022/01/31 10:59:36;;;;;;;1.93;0.80;;;5.50;99.90;;;;;;5131627;27;20817;-87
2022/01/31 11:02:06;;;;;;;3.33;1.57;;;5.50;99.90;;;;;;5120402;27;20829;-89
2022/01/31 11:04:36;;;;;;;6.20;1.20;;;5.30;99.90;;;;;;5111635;28;20448;-89
2022/01/31 11:07:08;;;;;;;2.60;0.87;;;5.30;99.90;;;;;;5110712;28;20490;-89
2022/01/31 11:09:36;;;;;;;1.87;0.63;;;5.20;99.90;;;;;;5111899;28;20451;-87
2022/01/31 11:12:04;;;;;;;3.87;2.00;;;;;;;;;;5118608;28;20438;-90
2022/01/31 11:14:31;;;;;;;2.70;0.80;;;;;;;;;;5129591;27;20448;-88
2022/01/31 11:16:59;;;;;;;0.60;0.40;;;;;;;;;;5130455;27;20443;-88
2022/01/31 11:19:31;;;;;;;4.03;0.93;;;5.00;99.90;;;;;;5128256;27;20450;-86
2022/01/31 11:22:04;;;;;;;3.13;1.20;;;5.00;99.90;;;;;;5127723;28;20701;-83
2022/01/31 11:27:17;;;;;;;0.50;0.47;;;5.10;99.90;;;;;;5129976;27;20506;-85
2022/01/31 11:29:47;;;;;;;2.07;1.00;;;5.00;99.90;;;;;;5129792;27;20454;-85
2022/01/31 11:32:15;;;;;;;0.87;0.40;;;;;;;;;;5128851;27;20488;-86
2022/01/31 11:34:44;;;;;;;4.77;1.20;;;4.80;99.90;;;;;;5130044;27;20445;-87
2022/01/31 11:37:15;;;;;;;2.40;0.67;;;4.60;99.90;;;;;;5129911;27;20450;-86
2022/01/31 11:39:48;;;;;;;0.93;0.43;;;4.40;99.90;;;;;;5130056;27;20445;-86
2022/01/31 11:42:20;;;;;;;3.20;1.03;;;4.40;99.90;;;;;;5129550;27;20452;-85
2022/01/31 11:44:51;;;;;;;0.73;0.73;;;4.40;99.90;;;;;;5067885;28;20532;-86
2022/01/31 11:47:24;;;;;;;0.60;0.40;;;4.40;99.90;;;;;;5066928;28;20487;-88
2022/01/31 11:49:53;;;;;;;0.93;0.50;;;4.40;99.90;;;;;;5068617;28;20463;-86
2022/01/31 11:52:23;;;;;;;1.03;0.63;;;4.40;99.90;;;;;;5068771;28;20524;-87
2022/01/31 11:54:51;;;;;;;3.30;0.83;;;4.40;99.90;;;;;;5068499;28;20554;-88
2022/01/31 11:57:20;;;;;;;2.80;0.57;;;4.40;99.90;;;;;;5068579;28;20460;-87
2022/01/31 11:59:51;;;;;;;1.10;1.00;;;4.30;99.90;;;;;;5055980;28;20452;-86
2022/01/31 12:02:20;;;;;;;1.60;0.70;;;4.40;99.90;;;;;;5054157;28;20451;-87
2022/01/31 12:04:49;;;;;;;2.67;0.67;;;4.30;99.90;;;;;;5055464;28;20443;-87
2022/01/31 12:07:39;;;;;;;2.60;0.90;;;4.30;99.90;;;;;;5055511;28;20488;-85
2022/01/31 12:10:10;;;;;;;2.93;2.40;;;4.20;99.90;;;;;;5052186;28;20460;-90
2022/01/31 12:12:48;;;;;;;2.67;0.70;;;4.20;99.90;;;;;;5056202;28;20448;-89
2022/01/31 12:24:01;;;;;;;1.33;0.73;;;4.00;99.90;;;;;;5056220;28;20565;-91
2022/01/31 12:26:53;;;;;;;0.40;0.30;;;4.00;99.90;;;;;;5055959;28;20454;-88
2022/01/31 12:29:22;;;;;;;3.67;1.03;;;3.90;99.90;;;;;;5055908;28;20447;-89
2022/01/31 12:31:51;;;;;;;1.97;0.80;;;3.90;99.90;;;;;;5053379;28;20869;-87
2022/01/31 12:34:51;;;;;;;0.80;0.57;;;3.80;99.90;;;;;;5056497;28;20819;-89
2022/01/31 12:37:22;;;;;;;0.80;0.70;;;3.70;99.90;;;;;;5052915;28;20451;-89
2022/01/31 12:42:58;;;;;;;0.57;0.33;;;3.90;99.90;;;;;;5056407;28;20542;-88
2022/01/31 12:45:32;;;;;;;2.40;0.53;;;3.90;99.90;;;;;;5055168;28;20448;-85
2022/01/31 12:48:16;;;;;;;2.77;0.87;;;3.90;99.90;;;;;;5053657;28;20509;-88
2022/01/31 12:53:48;;;;;;;4.30;1.27;;;3.90;99.90;;;;;;5055916;28;20446;-87
2022/01/31 12:56:30;;;;;;;0.80;0.57;;;3.90;99.90;;;;;;5056329;28;21127;-90
2022/01/31 12:59:11;;;;;;;1.70;0.67;;;3.80;99.90;;;;;;5052531;28;20487;-89
2022/01/31 13:01:39;;;;;;;0.97;0.70;;;3.80;99.90;;;;;;5054919;28;20435;-90
2022/01/31 13:04:07;;;;;;;1.20;1.03;;;3.80;99.90;;;;;;5056235;28;20448;-89
2022/01/31 13:06:41;;;;;;;0.50;0.50;;;3.80;99.90;;;;;;5055009;28;20464;-87
2022/01/31 13:09:12;;;;;;;9.23;1.10;;;3.70;99.90;;;;;;5053557;28;20514;-88
2022/01/31 13:11:42;;;;;;;0.50;0.50;;;3.70;99.90;;;;;;5053369;28;20993;-88
2022/01/31 13:14:13;;;;;;;2.10;0.70;;;3.70;99.90;;;;;;5050129;28;20447;-86
2022/01/31 13:16:43;;;;;;;6.43;1.47;;;3.70;99.90;;;;;;5053431;28;20970;-85
2022/01/31 13:19:13;;;;;;;3.80;1.10;;;3.70;99.90;;;;;;5053323;28;20451;-89
2022/01/31 13:21:42;;;;;;;1.00;0.50;;;3.60;99.90;;;;;;5054766;28;20456;-88
2022/01/31 13:24:09;;;;;;;2.73;1.07;;;;;;;;;;5055822;28;20446;-86
2022/01/31 13:26:52;;;;;;;0.70;0.70;;;3.60;99.90;;;;;;5054416;28;20512;-86
2022/01/31 13:29:43;;;;;;;6.50;1.23;;;3.60;99.90;;;;;;5048451;28;20452;-87
2022/01/31 13:32:19;;;;;;;3.03;0.87;;;3.60;99.90;;;;;;5031993;28;20454;-85
2022/01/31 13:34:48;;;;;;;1.57;0.80;;;3.70;99.90;;;;;;5042622;28;20443;-88
2022/01/31 13:37:35;;;;;;;2.67;0.97;;;3.80;99.90;;;;;;5052352;28;20458;-86
2022/01/31 13:40:06;;;;;;;4.57;1.33;;;3.90;99.90;;;;;;5053610;28;20439;-91
2022/01/31 13:42:37;;;;;;;0.40;0.30;;;3.90;99.90;;;;;;5053401;28;20516;-87
2022/01/31 13:45:11;;;;;;;0.83;0.60;;;4.00;99.90;;;;;;5053350;28;20448;-86
2022/01/31 13:47:44;;;;;;;2.33;1.43;;;;;;;;;;5052056;28;20527;-85
2022/01/31 13:50:28;;;;;;;2.63;0.80;;;4.20;99.90;;;;;;5053662;28;20823;-87
2022/01/31 13:53:00;;;;;;;0.77;0.60;;;4.20;99.90;;;;;;5053512;28;20478;-87
2022/01/31 13:55:28;;;;;;;0.70;0.60;;;4.30;99.90;;;;;;5053594;28;20453;-87
2022/01/31 13:57:58;;;;;;;0.80;0.53;;;4.30;99.90;;;;;;5053167;28;20459;-85
2022/01/31 14:00:25;;;;;;;2.00;0.77;;;;;;;;;;5053759;28;21110;-85
2022/01/31 14:03:09;;;;;;;3.70;0.70;;;4.30;99.90;;;;;;5052826;28;20450;-87
2022/01/31 14:05:36;;;;;;;1.10;0.70;;;;;;;;;;5053654;28;20441;-86
2022/01/31 14:08:07;;;;;;;7.23;1.03;;;4.20;99.90;;;;;;5051146;28;20845;-85
2022/01/31 14:10:35;;;;;;;0.60;0.40;;;;;;;;;;5053391;28;20445;-88
2022/01/31 14:13:06;;;;;;;1.33;0.90;;;4.10;99.90;;;;;;5054082;28;20487;-87
2022/01/31 14:15:42;;;;;;;0.53;0.47;;;4.00;99.90;;;;;;5053602;28;20453;-88
2022/01/31 14:18:10;;;;;;;1.33;0.47;;;3.90;99.90;;;;;;5052340;28;20554;-86
2022/01/31 14:20:38;;;;;;;0.63;0.60;;;;;;;;;;5053076;28;20464;-87
2022/01/31 14:23:05;;;;;;;0.87;0.77;;;;;;;;;;5054767;28;20447;-88
2022/01/31 14:25:40;;;;;;;4.13;2.43;;;4.10;99.90;;;;;;5053431;28;20444;-87
2022/01/31 14:28:10;;;;;;;3.10;0.70;;;4.10;99.90;;;;;;5053094;28;20481;-88
2022/01/31 14:30:46;;;;;;;3.50;1.00;;;4.10;99.90;;;;;;5053552;28;20453;-87
2022/01/31 14:33:13;;;;;;;3.17;0.40;;;;;;;;;;5051897;28;20448;-90
2022/01/31 14:35:40;;;;;;;4.20;0.80;;;;;;;;;;5052292;28;20435;-87
2022/01/31 14:38:18;;;;;;;4.60;3.43;;;4.20;99.90;;;;;;5039000;28;20444;-87
2022/01/31 14:41:08;;;;;;;1.20;0.60;;;4.30;99.90;;;;;;5033430;28;20537;-88
2022/01/31 14:49:07;;;;;;;2.33;0.70;;;;;;;;;;5034525;28;20852;-90
2022/01/31 14:51:37;;;;;;;2.40;1.00;;;4.20;99.90;;;;;;5036540;28;20446;-91
2022/01/31 14:54:06;;;;;;;3.23;1.57;;;4.10;99.90;;;;;;5033812;28;20526;-87